Hovedside
METAR-TAF:

METAR-TAF

Lufthavner :

Trollhättan-Vänersborg, Sverige

breddegrad: 58-19N, lengdegrad: 012-21E, høyde over havet: 41 m

Gjeldene værobservasjon

Denne rapporten ble laget for 24 minutter siden, klokken 04:20 UTC
Vind 7 kt fra Vest
Temperatur 1°C
Luftfuktighet 100%
Trykk 991 hPa
Sikt: 8000 m
Overskyet i en høyde av 700 ft
lett regn, dis

METAR: ESGT 250420Z 27007KT 8000 -RA BR OVC007 01/01 Q0991

Tid: 06:44 (04:44 UTC)

Varsel

Denne rapporten ble laget for 14 minutter siden, klokken 04:30 UTC
Varsel gyldig fra 25. klokken 05 UTC til 25. klokken 12 UTC
Vind 9 kt fra Nordvest
Sikt: 8000 m
Overskyet i en høyde av 700 ft
lett regn
Sannsynlighet 40%
fra 25. klokken 05 UTC til 25. klokken 10 UTC
Sikt: 4000 m
Brutte skyer i en høyde av 1000 ft
lett regn, snø
Blir
fra 25. klokken 10 UTC til 25. klokken 12 UTC
Brutte skyer i en høyde av 1500 ft

TAF: ESGT 250430Z 2505/2512 31009KT 8000 -RA OVC007 PROB40 2505/2510 4000 -RASN BKN010 BECMG 2510/2512 BKN015

Værobservasjoner og værvarsel for over 4000 flyplasser (METAR- og TAF-rapporter).

Tilgjengelige stasjoner er representert av de røde og gule prikkene på kartet.

Hold musepekeren over prikken for å se navnet på stasjonen.

Klikk så for å se værobservasjoner og -varsler.

For å forandre kartet kan du klikke på den grønne knappen med svart kryss for å zoome inn, på den grønne knappen med strek for å zoome ut, eller på de grønne pilene for å se tilstøtende kart.


METAR-TAF: